Time;durP1;ratioP1;P1;durP2;ratioP2;P2;SDS_P1;SDS_P2;PMS_P1;PMS_P2;Temp;Humidity;BMP_temperature;BMP_pressure;BME280_temperature;BME280_humidity;BME280_pressure;Samples;Min_cycle;Max_cycle;Signal;HPM_P1;HPM_P2
2024/03/15 00:00:12;;;;;;;3.67;2.30;;;13.00;89.30;;;;;;4993932;28;20023;-79
2024/03/15 00:02:38;;;;;;;3.72;2.33;;;13.00;89.30;;;;;;4978670;28;20149;-78
2024/03/15 00:05:03;;;;;;;4.28;2.33;;;13.00;89.30;;;;;;4996089;28;20105;-79
2024/03/15 00:07:29;;;;;;;4.70;2.53;;;13.00;89.30;;;;;;4995987;28;20033;-79
2024/03/15 00:09:55;;;;;;;4.07;2.30;;;13.00;89.40;;;;;;4978508;28;20029;-79
2024/03/15 00:12:20;;;;;;;4.28;2.60;;;13.00;89.30;;;;;;4978210;28;20026;-79
2024/03/15 00:14:46;;;;;;;4.05;2.25;;;13.00;89.30;;;;;;4995818;28;20037;-79
2024/03/15 00:17:12;;;;;;;4.78;2.40;;;13.00;89.30;;;;;;4995887;28;20022;-79
2024/03/15 00:19:38;;;;;;;4.28;2.45;;;13.00;89.40;;;;;;4978541;28;20037;-79
2024/03/15 00:22:04;;;;;;;4.85;2.20;;;13.00;89.40;;;;;;4995803;28;20566;-79
2024/03/15 00:24:30;;;;;;;3.60;2.20;;;13.00;89.40;;;;;;4978327;28;20058;-79
2024/03/15 00:26:55;;;;;;;4.68;2.30;;;13.00;89.40;;;;;;4995488;28;20487;-79
2024/03/15 00:29:21;;;;;;;3.55;2.03;;;13.00;89.40;;;;;;4978136;28;20030;-79
2024/03/15 00:31:47;;;;;;;4.20;2.40;;;13.00;89.40;;;;;;4995314;28;20097;-79
2024/03/15 00:34:13;;;;;;;4.15;2.40;;;13.00;89.30;;;;;;4995565;28;20033;-79
2024/03/15 00:36:38;;;;;;;4.07;2.40;;;13.00;89.40;;;;;;4995706;28;20029;-78
2024/03/15 00:39:05;;;;;;;4.25;2.47;;;13.00;89.40;;;;;;4995523;28;20499;-79
2024/03/15 00:41:32;;;;;;;3.67;2.22;;;13.00;89.40;;;;;;4995440;28;20026;-79
2024/03/15 00:43:58;;;;;;;4.75;2.50;;;13.00;89.40;;;;;;4995118;28;20026;-79
2024/03/15 00:46:24;;;;;;;4.10;2.45;;;13.00;89.40;;;;;;4995232;28;20045;-78
2024/03/15 00:48:50;;;;;;;4.38;2.55;;;13.00;89.40;;;;;;4977901;28;20526;-79
2024/03/15 00:51:16;;;;;;;3.45;2.10;;;13.00;89.40;;;;;;4995271;28;20080;-79
2024/03/15 00:53:41;;;;;;;3.78;2.22;;;13.00;89.40;;;;;;4977504;28;20109;-79
2024/03/15 00:56:10;;;;;;;3.65;2.20;;;13.00;89.40;;;;;;4977246;28;20033;-79
2024/03/15 00:58:36;;;;;;;4.43;2.40;;;13.00;89.40;;;;;;4993837;28;20026;-79
2024/03/15 01:01:03;;;;;;;3.60;2.17;;;13.00;89.40;;;;;;4995112;28;20030;-78
2024/03/15 01:03:29;;;;;;;3.67;2.20;;;13.00;89.40;;;;;;4993672;28;20026;-79
2024/03/15 01:05:55;;;;;;;4.63;2.20;;;13.00;89.40;;;;;;4994934;28;20106;-79
2024/03/15 01:08:24;;;;;;;4.07;2.30;;;13.00;89.40;;;;;;4994935;28;20090;-79
2024/03/15 01:10:49;;;;;;;3.95;2.25;;;13.00;89.40;;;;;;4994578;28;20026;-79
2024/03/15 01:13:16;;;;;;;3.72;2.25;;;13.00;89.50;;;;;;4994563;28;20081;-78
2024/03/15 01:15:42;;;;;;;4.35;2.40;;;13.00;89.50;;;;;;4977316;28;20022;-78
2024/03/15 01:18:09;;;;;;;5.15;2.30;;;13.00;89.50;;;;;;4994809;28;20026;-78
2024/03/15 01:20:34;;;;;;;3.70;2.38;;;13.00;89.50;;;;;;4976999;28;20037;-79
2024/03/15 01:23:00;;;;;;;3.75;2.25;;;13.00;89.50;;;;;;4976727;28;20030;-79
2024/03/15 01:25:26;;;;;;;3.85;2.00;;;13.00;89.50;;;;;;4977154;28;20446;-79
2024/03/15 01:27:52;;;;;;;4.03;2.28;;;13.00;89.50;;;;;;4977151;28;20125;-79
2024/03/15 01:30:17;;;;;;;3.85;2.22;;;13.00;89.50;;;;;;4994271;28;20018;-79
2024/03/15 01:32:44;;;;;;;3.60;2.03;;;13.00;89.50;;;;;;4994175;28;20034;-78
2024/03/15 01:35:10;;;;;;;4.15;2.20;;;13.00;89.50;;;;;;4994392;28;20054;-79
2024/03/15 01:37:40;;;;;;;4.22;2.35;;;13.00;89.50;;;;;;4977215;28;20487;-78
2024/03/15 01:40:09;;;;;;;4.35;2.22;;;13.00;89.60;;;;;;4976787;28;20125;-79
2024/03/15 01:42:35;;;;;;;4.28;2.42;;;13.00;89.60;;;;;;4976669;28;20030;-79
2024/03/15 01:45:00;;;;;;;3.67;2.30;;;13.00;89.60;;;;;;4994315;28;20022;-79
2024/03/15 01:47:28;;;;;;;4.00;2.50;;;13.00;89.60;;;;;;4976833;28;20456;-79
2024/03/15 01:49:55;;;;;;;4.20;2.33;;;13.00;89.60;;;;;;4976557;28;20034;-79
2024/03/15 01:52:21;;;;;;;4.32;2.10;;;13.00;89.60;;;;;;4976457;28;20027;-79
2024/03/15 01:54:47;;;;;;;4.00;2.20;;;13.00;89.60;;;;;;4992395;28;20019;-79
2024/03/15 01:57:14;;;;;;;3.97;2.33;;;13.00;89.60;;;;;;4994019;28;20026;-78
2024/03/15 01:59:42;;;;;;;4.03;2.30;;;13.00;89.60;;;;;;4976866;28;20113;-79
2024/03/15 02:02:13;;;;;;;4.60;2.40;;;13.00;89.60;;;;;;4992644;28;20029;-79
2024/03/15 02:04:39;;;;;;;3.45;2.20;;;13.00;89.50;;;;;;4976535;28;20053;-79
2024/03/15 02:07:04;;;;;;;3.92;2.20;;;13.00;89.60;;;;;;4993903;28;20109;-79
2024/03/15 02:09:30;;;;;;;3.80;2.17;;;13.00;89.60;;;;;;4976390;28;20122;-79
2024/03/15 02:11:56;;;;;;;4.35;2.20;;;13.00;89.60;;;;;;4975910;28;20027;-78
2024/03/15 02:14:22;;;;;;;3.45;2.22;;;13.00;89.60;;;;;;4993546;28;20026;-78
2024/03/15 02:16:48;;;;;;;3.03;2.10;;;13.00;89.60;;;;;;4976242;28;20031;-79
2024/03/15 02:19:14;;;;;;;3.60;2.20;;;13.00;89.60;;;;;;4993520;28;20081;-79
2024/03/15 02:21:40;;;;;;;4.53;2.45;;;13.00;89.60;;;;;;4975941;28;20023;-77
2024/03/15 02:24:05;;;;;;;3.60;2.10;;;13.00;89.60;;;;;;4992947;28;20029;-78
2024/03/15 02:26:34;;;;;;;4.07;2.20;;;13.00;89.60;;;;;;4993383;28;20065;-79
2024/03/15 02:29:02;;;;;;;4.30;2.40;;;13.00;89.60;;;;;;4975995;28;20564;-79
2024/03/15 02:31:27;;;;;;;3.75;2.20;;;13.00;89.60;;;;;;4993343;28;20045;-79
2024/03/15 02:33:54;;;;;;;4.15;2.40;;;13.00;89.60;;;;;;4976018;28;20062;-79
2024/03/15 02:36:20;;;;;;;4.05;2.20;;;13.00;89.60;;;;;;4976127;28;20210;-79
2024/03/15 02:38:47;;;;;;;3.95;2.42;;;13.00;89.70;;;;;;4993192;28;20130;-79
2024/03/15 02:41:13;;;;;;;3.95;2.35;;;13.00;89.70;;;;;;4975972;28;20610;-78
2024/03/15 02:43:44;;;;;;;3.53;2.20;;;13.00;89.70;;;;;;4993312;28;20109;-79
2024/03/15 02:46:10;;;;;;;4.20;2.45;;;13.00;89.70;;;;;;4975599;28;20113;-79
2024/03/15 02:48:38;;;;;;;3.80;2.25;;;13.00;89.70;;;;;;4993374;28;20508;-78
2024/03/15 02:51:05;;;;;;;3.53;2.13;;;13.00;89.70;;;;;;4993052;28;20030;-78
2024/03/15 02:53:30;;;;;;;4.30;2.40;;;13.00;89.70;;;;;;4975722;28;20025;-79
2024/03/15 02:55:56;;;;;;;4.07;2.22;;;13.00;89.60;;;;;;4975248;28;20026;-78
2024/03/15 02:58:22;;;;;;;4.13;2.33;;;13.00;89.60;;;;;;4993180;28;20113;-79
2024/03/15 03:00:47;;;;;;;3.45;2.25;;;13.00;89.60;;;;;;4975904;28;20062;-78
2024/03/15 03:03:13;;;;;;;3.70;2.20;;;13.00;89.70;;;;;;4993090;28;20030;-78
2024/03/15 03:05:41;;;;;;;3.90;2.22;;;13.00;89.70;;;;;;4975783;28;20074;-79
2024/03/15 03:08:06;;;;;;;3.90;2.17;;;13.00;89.70;;;;;;4993204;28;20030;-79
2024/03/15 03:10:32;;;;;;;3.70;2.20;;;13.00;89.70;;;;;;4992754;28;20082;-79
2024/03/15 03:13:00;;;;;;;4.07;2.30;;;13.00;89.70;;;;;;4992780;28;20018;-78
2024/03/15 03:15:26;;;;;;;4.05;2.25;;;13.00;89.70;;;;;;4975650;28;20023;-80
2024/03/15 03:17:51;;;;;;;4.22;2.42;;;13.00;89.70;;;;;;4975677;28;20023;-79
2024/03/15 03:20:20;;;;;;;4.40;2.50;;;13.00;89.70;;;;;;4992957;28;20790;-79
2024/03/15 03:22:48;;;;;;;3.80;2.25;;;13.00;89.70;;;;;;4975297;28;20064;-78
2024/03/15 03:25:14;;;;;;;3.10;2.10;;;13.00;89.70;;;;;;4992962;28;20022;-78
2024/03/15 03:27:40;;;;;;;4.15;2.10;;;13.00;89.70;;;;;;4992967;28;20078;-78
2024/03/15 03:30:07;;;;;;;3.25;2.05;;;13.00;89.80;;;;;;4992768;28;20057;-78
2024/03/15 03:32:33;;;;;;;4.68;2.60;;;13.00;89.80;;;;;;4992575;28;20450;-79
2024/03/15 03:34:58;;;;;;;4.15;2.30;;;13.00;89.80;;;;;;4995766;28;20050;-79
2024/03/15 03:37:24;;;;;;;4.07;2.20;;;13.00;89.80;;;;;;4979164;28;20022;-78
2024/03/15 03:39:49;;;;;;;4.05;2.20;;;13.00;89.80;;;;;;4978789;28;20049;-77
2024/03/15 03:42:15;;;;;;;3.40;2.00;;;13.00;89.80;;;;;;4996134;28;20100;-78
2024/03/15 03:44:41;;;;;;;3.70;2.22;;;13.00;89.80;;;;;;4979046;28;20026;-79
2024/03/15 03:47:07;;;;;;;3.00;1.80;;;13.00;89.80;;;;;;5002663;28;20026;-79
2024/03/15 03:49:33;;;;;;;3.85;2.20;;;13.00;89.80;;;;;;5014027;28;20145;-79
2024/03/15 03:51:58;;;;;;;4.00;2.10;;;12.90;89.80;;;;;;5015467;28;20105;-79
2024/03/15 03:54:24;;;;;;;3.90;2.20;;;13.00;89.80;;;;;;5015438;28;20018;-79
2024/03/15 03:56:50;;;;;;;3.90;2.20;;;13.00;89.80;;;;;;5016045;28;20022;-79
2024/03/15 03:59:16;;;;;;;4.15;2.10;;;13.00;89.80;;;;;;4998277;28;20026;-77
2024/03/15 04:01:41;;;;;;;4.05;2.30;;;13.00;89.80;;;;;;5015823;28;20032;-78
2024/03/15 04:04:07;;;;;;;3.80;2.10;;;13.00;89.80;;;;;;4997976;28;20088;-78
2024/03/15 04:06:32;;;;;;;4.20;2.28;;;13.00;90.10;;;;;;5015774;28;20092;-79
2024/03/15 04:08:58;;;;;;;3.92;2.15;;;13.00;89.90;;;;;;4998139;28;20086;-79
2024/03/15 04:11:24;;;;;;;4.00;2.15;;;13.00;89.80;;;;;;5015421;28;20112;-79
2024/03/15 04:13:52;;;;;;;3.42;2.00;;;13.00;89.90;;;;;;4997863;28;20125;-78
2024/03/15 04:16:18;;;;;;;3.15;2.03;;;13.00;89.90;;;;;;4997999;28;20026;-79
2024/03/15 04:18:44;;;;;;;4.07;2.17;;;13.00;90.10;;;;;;5015274;28;20449;-79
2024/03/15 04:21:13;;;;;;;4.45;2.20;;;13.00;89.90;;;;;;5015279;28;20025;-79
2024/03/15 04:23:39;;;;;;;3.58;2.20;;;13.00;89.90;;;;;;4997743;28;20719;-79
2024/03/15 04:26:05;;;;;;;3.95;2.33;;;13.00;89.90;;;;;;4997855;28;20026;-79
2024/03/15 04:28:32;;;;;;;4.13;2.25;;;13.00;89.90;;;;;;5015198;28;20057;-80
2024/03/15 04:30:57;;;;;;;3.90;2.47;;;13.00;89.90;;;;;;4997637;28;20022;-79
2024/03/15 04:33:23;;;;;;;4.32;2.38;;;13.00;90.00;;;;;;5015115;28;20041;-79
2024/03/15 04:35:50;;;;;;;3.90;2.38;;;13.00;89.90;;;;;;5015238;28;20391;-79
2024/03/15 04:38:16;;;;;;;4.05;2.20;;;13.00;89.90;;;;;;5015079;28;20029;-79
2024/03/15 04:40:41;;;;;;;3.83;2.33;;;13.00;89.90;;;;;;5014997;28;20026;-79
2024/03/15 04:43:07;;;;;;;3.35;2.00;;;13.00;89.90;;;;;;4997322;28;20036;-78
2024/03/15 04:45:33;;;;;;;3.85;2.20;;;13.00;89.90;;;;;;5014163;28;20072;-78
2024/03/15 04:48:00;;;;;;;4.40;2.47;;;13.00;89.90;;;;;;4997063;28;20117;-79
2024/03/15 04:50:26;;;;;;;3.47;2.08;;;13.00;89.90;;;;;;4997171;28;20018;-79
2024/03/15 04:52:52;;;;;;;3.85;2.10;;;13.00;89.90;;;;;;5014694;28;20100;-79
2024/03/15 04:55:19;;;;;;;3.78;2.28;;;13.00;89.90;;;;;;5014520;28;20475;-79
2024/03/15 04:57:45;;;;;;;3.60;2.13;;;13.00;90.00;;;;;;4997136;28;20022;-79
2024/03/15 05:00:20;;;;;;;3.97;2.20;;;13.00;89.90;;;;;;5014671;28;20105;-79
2024/03/15 05:02:49;;;;;;;4.25;2.38;;;13.00;90.00;;;;;;5014349;28;20403;-78
2024/03/15 05:05:15;;;;;;;4.18;2.40;;;12.90;89.90;;;;;;5014726;28;20437;-79
2024/03/15 05:07:42;;;;;;;4.05;2.38;;;12.90;89.90;;;;;;5014460;28;20045;-78
2024/03/15 05:10:07;;;;;;;3.90;2.38;;;12.90;89.90;;;;;;5014367;28;20021;-79
2024/03/15 05:12:34;;;;;;;3.75;2.20;;;13.00;90.00;;;;;;5014071;28;20171;-79
2024/03/15 05:15:00;;;;;;;4.05;2.50;;;13.00;90.00;;;;;;4996998;28;20018;-79
2024/03/15 05:17:26;;;;;;;3.90;2.30;;;13.00;90.00;;;;;;5014419;28;20372;-79
2024/03/15 05:19:51;;;;;;;3.58;2.17;;;13.00;90.00;;;;;;4996999;28;20486;-78
2024/03/15 05:22:18;;;;;;;3.80;2.30;;;13.00;90.00;;;;;;5014054;28;20033;-79
2024/03/15 05:24:43;;;;;;;3.08;2.00;;;13.00;90.00;;;;;;5014231;28;20030;-79
2024/03/15 05:27:09;;;;;;;4.38;2.45;;;13.00;90.00;;;;;;4996578;28;20036;-79
2024/03/15 05:29:38;;;;;;;3.63;2.20;;;13.00;90.00;;;;;;5012854;28;20038;-77
2024/03/15 05:32:04;;;;;;;3.75;2.20;;;13.00;90.00;;;;;;4993598;28;20088;-79
2024/03/15 05:34:31;;;;;;;4.03;2.25;;;13.00;90.00;;;;;;4998944;28;20129;-79
2024/03/15 05:36:57;;;;;;;3.47;2.00;;;13.00;90.00;;;;;;5013778;28;20097;-79
2024/03/15 05:39:22;;;;;;;3.50;2.15;;;13.00;90.00;;;;;;4996573;28;20057;-79
2024/03/15 05:41:48;;;;;;;3.13;2.03;;;13.00;90.00;;;;;;5013736;28;20397;-79
2024/03/15 05:44:13;;;;;;;4.00;2.13;;;13.00;90.00;;;;;;4996397;28;20029;-79
2024/03/15 05:46:39;;;;;;;3.78;2.25;;;13.00;90.00;;;;;;4993406;28;20033;-78
2024/03/15 05:49:04;;;;;;;3.97;2.17;;;13.00;90.00;;;;;;4999694;28;20117;-78
2024/03/15 05:51:32;;;;;;;4.07;2.30;;;13.00;90.00;;;;;;4997295;28;20029;-80
2024/03/15 05:53:57;;;;;;;3.38;2.10;;;13.00;90.00;;;;;;4995900;28;20033;-79
2024/03/15 05:56:25;;;;;;;4.57;2.20;;;13.00;90.00;;;;;;4996701;28;20029;-79
2024/03/15 05:58:54;;;;;;;3.97;2.33;;;13.00;90.00;;;;;;4996607;28;20033;-80
2024/03/15 06:01:19;;;;;;;3.67;2.00;;;13.00;90.00;;;;;;4989923;28;20026;-78
2024/03/15 06:03:45;;;;;;;3.90;2.10;;;13.00;90.00;;;;;;4991281;28;20032;-80
2024/03/15 06:06:11;;;;;;;3.90;2.35;;;13.00;90.00;;;;;;4992952;28;20392;-78
2024/03/15 06:08:37;;;;;;;3.85;2.20;;;13.00;90.00;;;;;;5010548;28;20171;-79
2024/03/15 06:11:03;;;;;;;3.92;2.10;;;13.00;90.00;;;;;;4991296;28;20454;-78
2024/03/15 06:13:29;;;;;;;3.88;2.25;;;12.90;90.00;;;;;;4992892;28;20026;-79
2024/03/15 06:15:55;;;;;;;3.85;2.22;;;13.00;90.00;;;;;;5010406;28;20509;-80
2024/03/15 06:18:21;;;;;;;3.40;2.13;;;13.00;90.00;;;;;;4992009;28;20510;-78
2024/03/15 06:20:47;;;;;;;3.95;2.20;;;13.00;90.00;;;;;;4992490;28;20030;-78
2024/03/15 06:23:13;;;;;;;3.50;2.10;;;13.10;90.00;;;;;;4992162;28;20391;-80
2024/03/15 06:25:40;;;;;;;4.38;2.30;;;13.00;90.00;;;;;;4992468;28;20026;-78
2024/03/15 06:28:10;;;;;;;3.78;2.08;;;13.00;90.00;;;;;;4993074;28;20237;-79
2024/03/15 06:30:43;;;;;;;4.13;2.22;;;13.00;90.00;;;;;;4991946;28;20026;-78
2024/03/15 06:33:10;;;;;;;3.47;2.20;;;13.00;90.00;;;;;;4992008;28;20026;-79
2024/03/15 06:35:36;;;;;;;4.15;2.40;;;13.00;90.00;;;;;;4992631;28;20041;-79
2024/03/15 06:38:09;;;;;;;4.70;2.28;;;13.10;90.20;;;;;;4994258;28;20386;-79
2024/03/15 06:40:45;;;;;;;3.78;2.20;;;13.10;90.00;;;;;;4991279;28;20527;-79
2024/03/15 06:43:14;;;;;;;4.15;2.20;;;13.10;90.00;;;;;;4989846;28;20022;-79
2024/03/15 06:48:18;;;;;;;4.05;2.15;;;13.10;90.00;;;;;;4989886;28;20110;-79
2024/03/15 06:53:37;;;;;;;3.85;2.30;;;13.10;90.00;;;;;;5008526;28;20084;-78
2024/03/15 06:56:02;;;;;;;3.65;2.22;;;13.10;89.80;;;;;;5008302;28;20113;-78
2024/03/15 06:58:28;;;;;;;3.83;2.17;;;13.10;89.80;;;;;;5008719;28;20041;-79
2024/03/15 07:00:54;;;;;;;3.50;2.10;;;13.10;89.70;;;;;;5060526;22;20178;-79
2024/03/15 07:03:19;;;;;;;4.18;2.30;;;13.10;89.50;;;;;;5047378;28;20512;-79
2024/03/15 07:05:45;;;;;;;3.72;2.13;;;13.20;89.50;;;;;;5046391;28;20478;-79
2024/03/15 07:08:14;;;;;;;5.22;2.30;;;13.20;89.40;;;;;;5050090;28;20183;-79
2024/03/15 07:10:40;;;;;;;3.42;2.20;;;13.20;89.30;;;;;;5053237;28;20079;-78
2024/03/15 07:13:06;;;;;;;3.63;2.05;;;13.20;89.40;;;;;;5053150;28;20018;-78
2024/03/15 07:15:32;;;;;;;3.90;2.30;;;13.30;89.40;;;;;;5054398;28;20028;-78
2024/03/15 07:18:04;;;;;;;4.55;2.30;;;13.20;89.40;;;;;;5055523;28;20025;-77
2024/03/15 07:20:30;;;;;;;3.33;2.08;;;13.20;89.30;;;;;;5057324;28;20029;-77
2024/03/15 07:22:58;;;;;;;3.40;1.98;;;13.20;89.30;;;;;;5054440;28;20029;-78
2024/03/15 07:25:24;;;;;;;3.65;2.10;;;13.20;89.30;;;;;;5053788;28;20059;-79
2024/03/15 07:27:51;;;;;;;3.50;2.20;;;13.20;89.30;;;;;;5052405;28;20370;-79
2024/03/15 07:30:18;;;;;;;3.58;2.20;;;13.20;89.30;;;;;;5053351;28;20043;-77
2024/03/15 07:32:46;;;;;;;4.35;2.10;;;13.20;89.40;;;;;;5050884;28;20055;-79
2024/03/15 07:35:12;;;;;;;3.90;2.30;;;13.20;89.40;;;;;;5050533;28;20021;-80
2024/03/15 07:37:38;;;;;;;4.57;2.35;;;13.20;89.50;;;;;;5050100;28;20383;-79
2024/03/15 07:40:10;;;;;;;4.30;2.35;;;13.20;89.60;;;;;;5050412;28;20096;-80
2024/03/15 07:42:36;;;;;;;3.95;2.20;;;13.00;89.50;;;;;;5050224;28;20033;-81
2024/03/15 07:45:02;;;;;;;4.45;2.25;;;13.20;89.70;;;;;;5052912;28;20029;-80
2024/03/15 07:47:28;;;;;;;4.63;2.30;;;13.10;89.70;;;;;;5053626;28;20033;-78
2024/03/15 07:49:54;;;;;;;3.92;2.33;;;13.10;89.70;;;;;;5053606;28;20393;-78
2024/03/15 07:52:19;;;;;;;3.08;1.95;;;13.10;89.70;;;;;;5051776;28;20070;-79
2024/03/15 07:54:45;;;;;;;4.88;2.40;;;13.10;89.80;;;;;;5052265;28;20096;-79
2024/03/15 07:57:11;;;;;;;3.45;1.90;;;13.20;89.80;;;;;;5051994;28;20025;-79
2024/03/15 07:59:36;;;;;;;3.70;2.13;;;13.30;90.00;;;;;;5052107;28;20033;-79
2024/03/15 08:02:03;;;;;;;4.00;2.15;;;13.20;89.90;;;;;;5052811;28;20064;-79
2024/03/15 08:04:30;;;;;;;3.65;2.10;;;13.20;89.90;;;;;;5051975;28;20024;-79
2024/03/15 08:06:55;;;;;;;5.45;2.22;;;13.10;89.80;;;;;;5053559;28;20036;-79
2024/03/15 08:09:23;;;;;;;5.45;2.58;;;13.10;89.80;;;;;;5052901;28;20421;-78
2024/03/15 08:11:49;;;;;;;4.35;2.28;;;13.10;89.80;;;;;;5053063;28;20017;-79
2024/03/15 08:14:14;;;;;;;4.57;2.30;;;13.20;89.80;;;;;;5053358;28;20028;-79
2024/03/15 08:16:41;;;;;;;3.85;2.15;;;13.10;89.80;;;;;;5053140;28;20025;-79
2024/03/15 08:19:08;;;;;;;4.50;2.20;;;13.20;89.80;;;;;;5053107;28;20051;-79
2024/03/15 08:21:37;;;;;;;3.95;2.28;;;13.10;89.80;;;;;;5050249;28;20505;-79
2024/03/15 08:24:04;;;;;;;3.60;1.88;;;13.10;89.80;;;;;;5051566;28;20037;-79
2024/03/15 08:26:33;;;;;;;3.97;2.10;;;13.20;89.80;;;;;;5053031;28;20032;-79
2024/03/15 08:29:00;;;;;;;4.30;2.33;;;13.20;89.80;;;;;;5051872;28;20060;-78
2024/03/15 08:31:26;;;;;;;3.97;2.30;;;13.10;89.80;;;;;;5051435;28;20025;-78
2024/03/15 08:33:51;;;;;;;3.85;1.98;;;13.20;89.80;;;;;;5051392;28;20481;-79
2024/03/15 08:36:16;;;;;;;3.97;2.38;;;13.20;89.80;;;;;;5051486;28;20021;-78
2024/03/15 08:38:42;;;;;;;5.68;2.35;;;13.10;89.80;;;;;;5051233;28;20029;-79
2024/03/15 08:41:08;;;;;;;3.38;2.08;;;13.20;89.90;;;;;;5051334;28;20103;-79
2024/03/15 08:43:34;;;;;;;3.92;2.28;;;13.10;89.80;;;;;;5051063;28;20035;-79
2024/03/15 08:45:59;;;;;;;3.72;2.00;;;13.20;89.90;;;;;;5052713;28;20100;-78
2024/03/15 08:48:29;;;;;;;2.95;1.90;;;13.10;89.80;;;;;;5050878;28;20123;-78
2024/03/15 08:50:55;;;;;;;3.00;1.83;;;13.10;89.80;;;;;;5051148;28;20099;-78
2024/03/15 08:53:20;;;;;;;3.63;1.90;;;13.20;89.80;;;;;;5052335;28;20454;-78
2024/03/15 08:55:46;;;;;;;3.03;1.88;;;13.20;89.80;;;;;;5050940;28;20049;-78
2024/03/15 08:58:11;;;;;;;4.53;2.20;;;13.10;89.70;;;;;;5051077;28;20099;-79
2024/03/15 09:00:38;;;;;;;3.15;2.00;;;13.20;89.80;;;;;;5050608;28;20500;-78
2024/03/15 09:03:05;;;;;;;4.00;2.17;;;13.20;89.70;;;;;;5052515;28;20020;-79
2024/03/15 09:05:31;;;;;;;3.80;1.85;;;13.10;89.60;;;;;;5052167;28;20017;-79
2024/03/15 09:07:57;;;;;;;4.50;2.20;;;13.20;89.70;;;;;;5052334;28;20017;-78
2024/03/15 09:10:23;;;;;;;3.58;1.75;;;13.20;89.70;;;;;;5051872;28;20027;-79
2024/03/15 09:12:49;;;;;;;3.75;2.05;;;13.20;89.70;;;;;;5050569;28;20017;-79
2024/03/15 09:15:16;;;;;;;3.22;1.83;;;13.20;89.60;;;;;;5050641;28;20025;-79
2024/03/15 09:17:42;;;;;;;3.88;2.03;;;13.20;89.60;;;;;;5050510;28;20032;-79
2024/03/15 09:20:42;;;;;;;3.83;1.80;;;13.10;89.50;;;;;;5051970;28;20474;-78
2024/03/15 09:23:04;;;;;;;3.47;1.92;;;13.20;89.60;;;;;;5049623;28;20033;-79
2024/03/15 09:25:32;;;;;;;3.10;1.70;;;13.20;89.60;;;;;;5050729;28;20050;-79
2024/03/15 09:27:59;;;;;;;3.20;1.75;;;13.20;89.60;;;;;;5050682;28;20029;-78
2024/03/15 09:30:27;;;;;;;3.33;1.90;;;13.20;89.60;;;;;;5050595;28;20032;-78
2024/03/15 09:32:53;;;;;;;4.30;2.10;;;13.30;89.60;;;;;;5050002;28;20029;-79
2024/03/15 09:35:19;;;;;;;3.78;2.08;;;13.20;89.50;;;;;;5050890;28;20029;-78
2024/03/15 09:37:51;;;;;;;2.75;1.73;;;13.20;89.60;;;;;;5051877;28;20017;-78
2024/03/15 09:40:23;;;;;;;3.53;2.08;;;13.20;89.50;;;;;;5051725;28;20063;-79
2024/03/15 09:42:52;;;;;;;3.83;2.00;;;13.30;89.40;;;;;;5050352;28;20025;-79
2024/03/15 09:45:18;;;;;;;3.67;1.95;;;13.30;89.70;;;;;;5051860;28;20580;-79
2024/03/15 09:47:48;;;;;;;4.05;2.08;;;13.30;89.70;;;;;;5051450;28;20120;-78
2024/03/15 09:50:16;;;;;;;4.75;2.15;;;13.30;89.60;;;;;;5050127;28;20494;-78
2024/03/15 09:52:46;;;;;;;3.83;1.73;;;13.40;89.50;;;;;;5049869;28;20029;-79
2024/03/15 09:55:16;;;;;;;3.97;2.03;;;13.30;89.40;;;;;;5050318;28;20062;-79
2024/03/15 09:57:46;;;;;;;4.55;2.13;;;13.40;89.50;;;;;;5051145;28;20111;-79
2024/03/15 10:00:17;;;;;;;3.60;2.10;;;13.30;89.30;;;;;;5049875;28;20151;-79
2024/03/15 10:02:47;;;;;;;3.33;1.80;;;13.40;89.30;;;;;;5051165;28;20572;-79
2024/03/15 10:05:13;;;;;;;3.65;1.90;;;13.40;89.30;;;;;;5049907;28;20035;-78
2024/03/15 10:07:39;;;;;;;3.60;2.13;;;13.40;89.40;;;;;;5051132;28;20037;-78
2024/03/15 10:10:06;;;;;;;2.78;1.73;;;13.40;89.40;;;;;;5049654;28;20035;-78
2024/03/15 10:12:35;;;;;;;3.72;2.00;;;13.40;89.40;;;;;;5049645;28;20028;-78
2024/03/15 10:15:01;;;;;;;3.22;1.67;;;13.40;89.40;;;;;;5050931;28;20029;-78
2024/03/15 10:17:26;;;;;;;4.20;2.13;;;13.40;89.30;;;;;;5049438;28;20053;-79
2024/03/15 10:19:52;;;;;;;3.75;2.00;;;13.40;89.30;;;;;;5050798;28;20064;-78
2024/03/15 10:22:17;;;;;;;3.53;1.95;;;13.40;89.20;;;;;;5050397;28;20508;-79
2024/03/15 10:24:43;;;;;;;3.03;1.80;;;13.40;89.30;;;;;;5050847;28;20032;-79
2024/03/15 10:27:12;;;;;;;3.75;2.00;;;13.40;89.20;;;;;;5049322;28;20155;-78
2024/03/15 10:29:38;;;;;;;3.17;1.83;;;13.40;89.20;;;;;;5049098;28;20028;-79
2024/03/15 10:32:04;;;;;;;2.53;1.55;;;13.40;89.20;;;;;;5049302;28;20035;-79
2024/03/15 10:34:30;;;;;;;3.67;2.10;;;13.40;89.20;;;;;;5050227;28;20124;-79
2024/03/15 10:36:55;;;;;;;3.60;1.80;;;13.40;89.20;;;;;;5050550;28;20024;-78
2024/03/15 10:39:23;;;;;;;4.38;2.08;;;13.40;89.20;;;;;;5048871;28;20029;-78
2024/03/15 10:41:49;;;;;;;3.30;1.85;;;13.40;89.20;;;;;;5049005;28;20032;-79
2024/03/15 10:44:15;;;;;;;3.85;1.90;;;13.40;89.20;;;;;;5048528;28;20047;-78
2024/03/15 10:46:41;;;;;;;3.45;2.00;;;13.40;89.20;;;;;;5050482;28;20037;-80
2024/03/15 10:49:14;;;;;;;3.28;1.80;;;13.40;89.30;;;;;;5050421;28;20051;-78
2024/03/15 10:51:41;;;;;;;3.50;2.00;;;13.40;89.30;;;;;;5048943;28;20025;-79
2024/03/15 10:54:13;;;;;;;3.65;1.92;;;13.40;89.30;;;;;;5048778;28;20028;-79
2024/03/15 10:56:38;;;;;;;4.20;2.00;;;13.40;89.30;;;;;;5050514;28;20062;-78
2024/03/15 10:59:04;;;;;;;3.10;2.00;;;13.40;89.30;;;;;;5048848;28;20071;-78
2024/03/15 11:01:30;;;;;;;3.25;1.98;;;13.40;89.30;;;;;;5048854;28;20041;-78
2024/03/15 11:03:56;;;;;;;3.05;1.80;;;13.40;89.20;;;;;;5050155;28;20029;-79
2024/03/15 11:06:36;;;;;;;2.95;1.73;;;13.40;89.10;;;;;;5048657;28;20515;-79
2024/03/15 11:09:13;;;;;;;4.03;1.88;;;13.50;89.20;;;;;;5048798;28;20028;-78
2024/03/15 11:11:39;;;;;;;4.20;2.20;;;13.50;89.30;;;;;;5049752;28;20068;-78
2024/03/15 11:14:12;;;;;;;4.00;2.20;;;13.40;89.20;;;;;;5048677;28;20397;-79
2024/03/15 11:16:37;;;;;;;3.70;2.17;;;13.50;89.80;;;;;;5048700;28;20021;-78
2024/03/15 11:19:06;;;;;;;3.72;2.08;;;13.50;89.20;;;;;;5050186;28;20424;-78
2024/03/15 11:21:32;;;;;;;3.78;1.95;;;13.50;89.20;;;;;;5050117;28;20057;-78
2024/03/15 11:24:07;;;;;;;4.43;2.20;;;13.50;89.20;;;;;;5048620;28;20021;-78
2024/03/15 11:26:33;;;;;;;2.53;1.85;;;13.50;89.10;;;;;;5048576;28;20116;-79
2024/03/15 11:28:58;;;;;;;3.55;2.03;;;13.50;89.20;;;;;;5050063;28;20167;-79
2024/03/15 11:31:30;;;;;;;3.50;2.10;;;13.50;89.10;;;;;;5049083;28;20025;-78
2024/03/15 11:33:58;;;;;;;3.92;2.20;;;13.50;89.10;;;;;;5049709;28;20020;-78
2024/03/15 11:36:27;;;;;;;4.10;2.30;;;13.50;89.00;;;;;;5048701;28;20032;-78
2024/03/15 11:38:53;;;;;;;4.00;2.38;;;13.50;89.10;;;;;;5048596;28;20075;-79
2024/03/15 11:41:20;;;;;;;4.30;2.10;;;13.50;89.10;;;;;;5048676;28;20056;-78
2024/03/15 11:43:46;;;;;;;3.78;2.05;;;13.50;88.90;;;;;;5048371;28;20520;-79
2024/03/15 11:46:12;;;;;;;3.78;2.30;;;13.50;88.90;;;;;;5049792;28;20037;-78
2024/03/15 11:48:38;;;;;;;3.88;2.30;;;13.50;88.90;;;;;;5048142;28;20025;-79
2024/03/15 11:51:05;;;;;;;3.72;2.28;;;13.60;89.00;;;;;;5049743;28;20020;-79
2024/03/15 11:53:32;;;;;;;3.78;2.10;;;13.50;89.00;;;;;;5048547;28;20126;-79
2024/03/15 11:55:57;;;;;;;3.45;2.08;;;13.50;89.10;;;;;;5051098;28;20024;-78
2024/03/15 11:58:24;;;;;;;4.47;2.30;;;13.50;89.10;;;;;;5053493;28;20391;-79
2024/03/15 12:00:53;;;;;;;3.60;2.13;;;13.50;89.10;;;;;;5052015;28;20039;-79
2024/03/15 12:03:25;;;;;;;3.95;2.33;;;13.50;89.10;;;;;;5051903;28;20497;-79
2024/03/15 12:05:50;;;;;;;4.07;2.25;;;13.50;89.00;;;;;;5052267;28;20021;-78
2024/03/15 12:08:25;;;;;;;4.03;2.30;;;13.50;89.00;;;;;;5051913;28;20553;-79
2024/03/15 12:10:52;;;;;;;4.30;2.20;;;13.60;89.00;;;;;;5051812;28;20047;-79
2024/03/15 12:13:19;;;;;;;3.90;2.20;;;13.60;88.90;;;;;;5051783;28;20119;-78
2024/03/15 12:15:46;;;;;;;4.15;2.42;;;13.60;88.90;;;;;;5051745;28;20021;-78
2024/03/15 12:18:16;;;;;;;4.20;2.22;;;13.60;88.90;;;;;;5053292;28;20025;-78
2024/03/15 12:20:46;;;;;;;3.30;2.17;;;13.60;89.00;;;;;;5053276;28;20136;-78
2024/03/15 12:23:15;;;;;;;4.47;2.40;;;13.60;88.90;;;;;;5053043;28;20044;-78
2024/03/15 12:25:41;;;;;;;4.22;2.50;;;13.60;89.00;;;;;;5053009;28;20032;-80
2024/03/15 12:28:14;;;;;;;4.22;2.38;;;13.60;89.00;;;;;;5051867;28;20029;-78
2024/03/15 12:30:54;;;;;;;3.78;2.40;;;13.60;89.00;;;;;;5051594;28;20111;-78
2024/03/15 12:33:19;;;;;;;4.05;2.45;;;13.60;89.10;;;;;;5051407;28;20071;-78
2024/03/15 12:35:46;;;;;;;4.68;2.42;;;13.50;89.10;;;;;;5052993;28;20025;-78
2024/03/15 12:38:14;;;;;;;4.28;2.40;;;13.60;89.20;;;;;;5053080;28;20017;-79
2024/03/15 12:40:42;;;;;;;4.40;2.35;;;13.50;89.20;;;;;;5051180;28;20516;-78
2024/03/15 12:43:09;;;;;;;3.90;2.40;;;13.50;89.10;;;;;;5051444;28;20122;-79
2024/03/15 12:45:34;;;;;;;3.90;2.20;;;13.50;89.10;;;;;;5051505;28;20053;-79
2024/03/15 12:48:00;;;;;;;3.45;2.20;;;13.50;89.10;;;;;;5052588;28;20056;-79
2024/03/15 12:50:27;;;;;;;4.25;2.40;;;13.50;89.20;;;;;;5051089;28;20029;-78